createdAt,value
2023-03-22T00:00:41.870Z,5.45
2023-03-22T00:03:13.637Z,5.47
2023-03-22T00:05:44.072Z,5.55
2023-03-22T00:08:15.447Z,5.61
2023-03-22T00:10:46.147Z,5.68
2023-03-22T00:13:17.936Z,5.74
2023-03-22T00:15:49.952Z,5.83
2023-03-22T00:18:20.341Z,5.92
2023-03-22T00:20:50.939Z,5.99
2023-03-22T00:23:21.993Z,6.06
2023-03-22T00:25:53.959Z,6.11
2023-03-22T00:28:25.447Z,6.16
2023-03-22T00:30:56.002Z,6.20
2023-03-22T00:33:29.116Z,6.23
2023-03-22T00:36:00.947Z,6.25
2023-03-22T00:38:42.605Z,6.29
2023-03-22T00:41:14.026Z,6.34
2023-03-22T00:43:47.012Z,6.40
2023-03-22T00:46:18.016Z,6.46
2023-03-22T00:53:32.943Z,6.58
2023-03-22T00:56:02.119Z,6.56
2023-03-22T00:58:33.912Z,6.56
2023-03-22T01:01:02.859Z,6.57
2023-03-22T01:03:33.214Z,6.57
2023-03-22T01:12:02.786Z,6.61
2023-03-22T01:14:32.481Z,6.58
2023-03-22T01:17:01.280Z,6.57
2023-03-22T01:19:30.096Z,6.53
2023-03-22T01:21:58.892Z,6.48
2023-03-22T01:24:27.845Z,6.41
2023-03-22T01:26:57.380Z,6.36
2023-03-22T01:29:26.885Z,6.28
2023-03-22T01:31:56.084Z,6.26
2023-03-22T01:34:26.813Z,6.25
2023-03-22T01:36:56.433Z,6.26
2023-03-22T01:39:26.253Z,6.29
2023-03-22T01:41:58.103Z,6.32
2023-03-22T01:44:30.368Z,6.39
2023-03-22T01:46:59.537Z,6.44
2023-03-22T01:49:31.255Z,6.47
2023-03-22T01:52:01.398Z,6.49
2023-03-22T01:54:49.094Z,6.49
2023-03-22T01:57:33.637Z,6.48
2023-03-22T02:00:04.598Z,6.46
2023-03-22T02:02:44.687Z,6.43
2023-03-22T02:05:23.278Z,6.41
2023-03-22T02:07:52.365Z,6.40
2023-03-22T02:16:14.933Z,6.39
2023-03-22T02:18:54.708Z,6.30
2023-03-22T02:21:28.100Z,6.25
2023-03-22T02:24:13.658Z,6.21
2023-03-22T02:26:59.323Z,6.16
2023-03-22T02:29:30.859Z,6.11
2023-03-22T02:32:13.333Z,6.06
2023-03-22T02:34:57.406Z,6.00
2023-03-22T02:37:40.479Z,5.93
2023-03-22T02:40:10.526Z,5.87
2023-03-22T02:42:42.196Z,5.79
2023-03-22T02:45:12.025Z,5.71
2023-03-22T02:47:41.516Z,5.63
2023-03-22T02:50:12.406Z,5.57
2023-03-22T02:52:44.074Z,5.53
2023-03-22T02:55:14.190Z,5.51
2023-03-22T02:57:43.553Z,5.47
2023-03-22T03:00:14.619Z,5.45
2023-03-22T03:02:45.204Z,5.42
2023-03-22T03:05:13.965Z,5.40
2023-03-22T03:07:43.232Z,5.36
2023-03-22T03:10:12.556Z,5.32
2023-03-22T03:12:41.322Z,5.27
2023-03-22T03:15:13.667Z,5.27
2023-03-22T03:17:45.445Z,5.27
2023-03-22T03:20:18.756Z,5.25
2023-03-22T03:22:50.552Z,5.23
2023-03-22T03:25:21.700Z,5.20
2023-03-22T03:27:51.268Z,5.15
2023-03-22T03:30:21.873Z,5.07
2023-03-22T03:32:52.461Z,5.02
2023-03-22T03:35:23.272Z,4.95
2023-03-22T03:37:53.790Z,4.86
2023-03-22T03:40:24.163Z,4.77
2023-03-22T03:42:53.881Z,4.68
2023-03-22T03:45:23.148Z,4.58
2023-03-22T03:47:56.874Z,4.49
2023-03-22T03:50:26.156Z,4.43
2023-03-22T03:52:55.903Z,4.38
2023-03-22T03:55:25.240Z,4.33
2023-03-22T03:57:54.191Z,4.29
2023-03-22T04:00:23.188Z,4.26
2023-03-22T04:03:30.725Z,4.23
2023-03-22T04:06:28.772Z,4.18
2023-03-22T04:09:01.728Z,4.16
2023-03-22T04:11:32.705Z,4.14
2023-03-22T04:14:03.082Z,4.12
2023-03-22T04:16:31.856Z,4.09
2023-03-22T04:19:00.876Z,4.09
2023-03-22T04:21:30.154Z,4.05
2023-03-22T04:24:00.456Z,4.05
2023-03-22T04:26:31.699Z,4.03
2023-03-22T04:29:26.726Z,4.02
2023-03-22T04:31:59.800Z,4.04
2023-03-22T04:34:38.271Z,4.07
2023-03-22T04:37:12.781Z,4.10
2023-03-22T04:39:53.735Z,4.12
2023-03-22T04:42:32.570Z,4.15
2023-03-22T04:45:29.274Z,4.18
2023-03-22T04:48:00.757Z,4.22
2023-03-22T04:50:30.549Z,4.24
2023-03-22T04:53:01.943Z,4.24
2023-03-22T04:55:31.338Z,4.25
2023-03-22T04:58:00.761Z,4.28
2023-03-22T05:06:27.285Z,4.25
2023-03-22T05:09:05.983Z,4.25
2023-03-22T05:11:34.702Z,4.28
2023-03-22T05:14:16.013Z,4.33
2023-03-22T05:16:45.149Z,4.35
2023-03-22T05:19:14.632Z,4.36
2023-03-22T05:21:46.753Z,4.38
2023-03-22T05:24:15.532Z,4.40
2023-03-22T05:26:47.269Z,4.44
2023-03-22T05:29:16.267Z,4.48
2023-03-22T05:31:59.768Z,4.54
2023-03-22T05:34:35.390Z,4.61
2023-03-22T05:37:11.478Z,4.67
2023-03-22T05:39:51.618Z,4.75
2023-03-22T05:42:20.919Z,4.81
2023-03-22T05:44:50.045Z,4.88
2023-03-22T05:47:19.018Z,5.02
2023-03-22T05:49:55.227Z,5.22
2023-03-22T05:52:25.505Z,5.45
2023-03-22T05:55:06.763Z,5.69
2023-03-22T05:57:35.627Z,5.85
2023-03-22T06:00:13.165Z,6.10
2023-03-22T06:02:44.566Z,6.37
2023-03-22T06:05:14.001Z,6.63
2023-03-22T06:07:44.022Z,6.77
2023-03-22T06:10:20.443Z,6.89
2023-03-22T06:12:49.464Z,7.21
2023-03-22T06:15:25.171Z,7.66
2023-03-22T06:18:08.407Z,8.20
2023-03-22T06:20:40.915Z,8.82
2023-03-22T06:23:15.372Z,9.32
2023-03-22T06:25:46.186Z,9.82
2023-03-22T06:28:15.392Z,10.33
2023-03-22T06:30:50.699Z,10.46
2023-03-22T06:33:30.848Z,10.28
2023-03-22T06:36:03.986Z,10.04
2023-03-22T06:38:44.697Z,9.76
2023-03-22T06:41:13.478Z,9.55
2023-03-22T06:43:42.377Z,9.36
2023-03-22T06:46:30.198Z,9.17
2023-03-22T06:49:06.108Z,9.00
2023-03-22T06:51:36.258Z,8.88
2023-03-22T06:54:05.506Z,8.77
2023-03-22T06:56:34.279Z,8.66
2023-03-22T06:59:03.387Z,8.56
2023-03-22T07:01:32.173Z,8.41
2023-03-22T07:04:01.131Z,8.28
2023-03-22T07:06:30.599Z,8.24
2023-03-22T07:08:59.531Z,8.29
2023-03-22T07:11:31.663Z,8.32
2023-03-22T07:14:01.961Z,8.32
2023-03-22T07:16:43.355Z,8.36
2023-03-22T07:19:12.624Z,8.44
2023-03-22T07:21:41.437Z,8.56
2023-03-22T07:24:13.647Z,8.79
2023-03-22T07:26:42.539Z,9.17
2023-03-22T07:29:12.394Z,9.69
2023-03-22T07:31:42.655Z,9.97
2023-03-22T07:34:14.155Z,10.16
2023-03-22T07:37:03.075Z,10.34
2023-03-22T07:39:32.255Z,10.55
2023-03-22T07:42:01.147Z,10.89
2023-03-22T07:45:08.647Z,11.41
2023-03-22T07:47:46.109Z,12.00
2023-03-22T07:50:20.522Z,12.60
2023-03-22T07:52:53.252Z,13.14
2023-03-22T07:55:22.097Z,13.59
2023-03-22T07:57:51.123Z,13.92
2023-03-22T08:00:20.464Z,14.14
2023-03-22T08:02:56.226Z,14.27
2023-03-22T08:05:42.418Z,14.58
2023-03-22T08:08:14.188Z,14.95
2023-03-22T08:10:43.579Z,15.28
2023-03-22T08:13:12.400Z,15.40
2023-03-22T08:15:43.147Z,15.10
2023-03-22T08:18:12.525Z,14.78
2023-03-22T08:20:44.028Z,14.83
2023-03-22T08:23:26.354Z,14.93
2023-03-22T08:26:18.788Z,14.94
2023-03-22T08:28:47.958Z,14.52
2023-03-22T08:31:17.637Z,13.95
2023-03-22T08:33:47.748Z,13.53
2023-03-22T08:36:17.526Z,13.37
2023-03-22T08:38:55.561Z,13.18
2023-03-22T08:41:30.680Z,13.08
2023-03-22T08:43:59.605Z,12.98
2023-03-22T08:46:28.369Z,12.87
2023-03-22T08:49:00.322Z,12.62
2023-03-22T08:51:35.626Z,12.41
2023-03-22T08:54:14.582Z,12.34
2023-03-22T08:56:55.254Z,12.36
2023-03-22T08:59:42.203Z,12.31
2023-03-22T09:02:33.609Z,12.26
2023-03-22T09:05:02.635Z,12.17
2023-03-22T09:07:32.368Z,12.10
2023-03-22T09:10:08.296Z,12.01
2023-03-22T09:12:38.874Z,11.85
2023-03-22T09:15:09.128Z,11.72
2023-03-22T09:17:40.040Z,11.66
2023-03-22T09:20:12.933Z,11.62
2023-03-22T09:22:44.159Z,11.66
2023-03-22T09:25:14.000Z,11.78
2023-03-22T09:27:44.902Z,11.87
2023-03-22T09:30:14.708Z,11.94
2023-03-22T09:32:43.605Z,12.04
2023-03-22T09:35:13.748Z,12.18
2023-03-22T09:37:53.222Z,12.24
2023-03-22T09:40:25.185Z,12.38
2023-03-22T09:42:55.255Z,12.51
2023-03-22T09:45:29.896Z,12.52
2023-03-22T09:47:58.692Z,12.53
2023-03-22T09:50:28.232Z,12.59
2023-03-22T09:52:57.041Z,12.67
2023-03-22T09:55:26.688Z,12.71
2023-03-22T09:57:58.157Z,12.64
2023-03-22T10:00:28.191Z,12.59
2023-03-22T10:02:58.771Z,12.57
2023-03-22T10:05:30.107Z,12.51
2023-03-22T10:08:15.412Z,12.43
2023-03-22T10:10:44.213Z,12.43
2023-03-22T10:13:16.449Z,12.52
2023-03-22T10:15:46.141Z,12.68
2023-03-22T10:18:17.446Z,12.87
2023-03-22T10:20:51.621Z,12.95
2023-03-22T10:23:21.547Z,12.98
2023-03-22T10:25:50.456Z,13.17
2023-03-22T10:28:19.812Z,13.40
2023-03-22T10:30:51.520Z,13.71
2023-03-22T10:33:22.481Z,14.10
2023-03-22T10:35:51.345Z,14.36
2023-03-22T10:38:21.032Z,14.82
2023-03-22T10:40:50.493Z,15.14
2023-03-22T10:43:21.742Z,15.08
2023-03-22T10:45:53.377Z,14.75
2023-03-22T10:48:24.849Z,14.35
2023-03-22T10:50:53.658Z,14.03
2023-03-22T10:53:24.648Z,14.16
2023-03-22T10:55:53.622Z,14.49
2023-03-22T10:58:22.882Z,14.74
2023-03-22T11:00:52.541Z,15.14
2023-03-22T11:03:27.084Z,15.02
2023-03-22T11:06:06.273Z,15.09
2023-03-22T11:08:40.631Z,15.42
2023-03-22T11:11:09.355Z,15.86
2023-03-22T11:13:38.114Z,15.91
2023-03-22T11:16:07.512Z,15.96
2023-03-22T11:18:36.305Z,15.99
2023-03-22T11:21:07.285Z,15.92
2023-03-22T11:23:36.255Z,15.81
2023-03-22T11:26:08.133Z,15.76
2023-03-22T11:28:37.506Z,15.78
2023-03-22T11:31:07.658Z,15.81
2023-03-22T11:33:36.698Z,16.07
2023-03-22T11:36:07.275Z,16.32
2023-03-22T11:38:37.937Z,16.39
2023-03-22T11:41:08.027Z,16.38
2023-03-22T11:43:37.467Z,16.43
2023-03-22T11:46:07.862Z,16.65
2023-03-22T11:48:36.705Z,16.85
2023-03-22T11:51:07.557Z,16.92
2023-03-22T11:53:37.967Z,17.11
2023-03-22T11:56:07.597Z,17.20
2023-03-22T11:58:48.986Z,17.48
2023-03-22T12:01:19.581Z,18.11
2023-03-22T12:03:50.023Z,18.55
2023-03-22T12:06:29.934Z,18.93
2023-03-22T12:09:08.216Z,19.08
2023-03-22T12:15:09.149Z,19.14
2023-03-22T12:17:38.928Z,18.78
2023-03-22T12:20:12.204Z,18.31
2023-03-22T12:22:43.504Z,18.39
2023-03-22T12:25:14.910Z,18.68
2023-03-22T12:27:44.975Z,18.68
2023-03-22T12:30:15.874Z,18.42
2023-03-22T12:32:45.988Z,18.18
2023-03-22T12:35:17.611Z,18.27
2023-03-22T12:37:47.214Z,18.23
2023-03-22T12:40:19.192Z,18.50
2023-03-22T12:42:51.799Z,18.82
2023-03-22T12:45:23.857Z,19.06
2023-03-22T12:47:54.469Z,19.32
2023-03-22T12:50:24.996Z,19.67
2023-03-22T12:52:57.120Z,19.86
2023-03-22T12:55:29.976Z,19.92
2023-03-22T12:57:59.877Z,20.06
2023-03-22T13:00:30.810Z,20.22
2023-03-22T13:03:02.351Z,20.18
2023-03-22T13:05:33.425Z,20.01
2023-03-22T13:08:05.653Z,19.67
2023-03-22T13:10:51.956Z,19.41
2023-03-22T13:13:35.252Z,19.30
2023-03-22T13:16:15.038Z,19.49
2023-03-22T13:18:59.975Z,19.73
2023-03-22T13:21:31.971Z,20.11
2023-03-22T13:24:05.045Z,20.45
2023-03-22T13:26:37.786Z,20.66
2023-03-22T13:29:10.953Z,20.64
2023-03-22T13:31:45.100Z,20.62
2023-03-22T13:34:16.980Z,20.54
2023-03-22T13:36:54.758Z,20.39
2023-03-22T13:39:26.554Z,20.27
2023-03-22T13:42:19.643Z,20.38
2023-03-22T13:44:57.526Z,20.76
2023-03-22T13:55:48.300Z,19.06
2023-03-22T13:58:30.900Z,18.35
2023-03-22T14:00:59.854Z,17.78
2023-03-22T14:03:29.874Z,17.50
2023-03-22T14:06:05.819Z,17.31
2023-03-22T14:08:34.606Z,16.99
2023-03-22T14:11:17.988Z,16.61
2023-03-22T14:13:47.408Z,16.33
2023-03-22T14:16:16.765Z,16.13
2023-03-22T14:18:45.802Z,15.99
2023-03-22T14:21:17.122Z,15.83
